createdAt,value
2019-01-13T00:00:49.070Z,99.90
2019-01-13T00:02:54.510Z,99.90
2019-01-13T00:05:06.814Z,99.90
2019-01-13T00:07:12.394Z,99.90
2019-01-13T00:09:17.898Z,99.90
2019-01-13T00:11:23.767Z,99.90
2019-01-13T00:13:29.264Z,99.90
2019-01-13T00:15:34.795Z,99.90
2019-01-13T00:17:40.286Z,99.90
2019-01-13T00:19:46.291Z,99.90
2019-01-13T00:21:53.679Z,99.90
2019-01-13T00:23:59.855Z,99.90
2019-01-13T00:26:05.542Z,99.90
2019-01-13T00:28:10.982Z,99.90
2019-01-13T00:30:19.273Z,99.90
2019-01-13T00:32:24.084Z,99.90
2019-01-13T00:34:30.434Z,99.90
2019-01-13T00:36:36.325Z,99.90
2019-01-13T00:38:41.817Z,99.90
2019-01-13T00:40:47.979Z,99.90
2019-01-13T00:42:53.494Z,99.90
2019-01-13T00:44:59.034Z,99.90
2019-01-13T00:47:04.543Z,99.90
2019-01-13T00:49:17.594Z,99.90
2019-01-13T00:51:23.665Z,99.90
2019-01-13T00:53:29.162Z,99.90
2019-01-13T00:55:37.832Z,99.90
2019-01-13T00:57:43.253Z,99.90
2019-01-13T00:59:49.519Z,99.90
2019-01-13T01:01:55.162Z,99.90
2019-01-13T01:04:00.789Z,99.90
2019-01-13T01:06:06.340Z,99.90
2019-01-13T01:08:11.901Z,99.90
2019-01-13T01:10:18.487Z,99.90
2019-01-13T01:12:24.059Z,99.90
2019-01-13T01:14:30.524Z,99.90
2019-01-13T01:16:36.022Z,99.90
2019-01-13T01:18:41.499Z,99.90
2019-01-13T01:20:47.089Z,99.90
2019-01-13T01:22:53.459Z,99.90
2019-01-13T01:24:59.450Z,99.90
2019-01-13T01:27:10.990Z,99.90
2019-01-13T01:29:16.900Z,99.90
2019-01-13T01:31:22.381Z,99.90
2019-01-13T01:33:27.921Z,99.90
2019-01-13T01:35:33.495Z,99.90
2019-01-13T01:37:39.223Z,99.90
2019-01-13T01:39:52.415Z,99.90
2019-01-13T01:41:57.981Z,99.90
2019-01-13T01:44:03.805Z,99.90
2019-01-13T01:46:11.514Z,99.90
2019-01-13T01:48:16.993Z,99.90
2019-01-13T01:50:22.885Z,99.90
2019-01-13T01:52:29.674Z,99.90
2019-01-13T01:54:35.131Z,99.90
2019-01-13T01:56:41.010Z,99.90
2019-01-13T01:58:46.876Z,99.90
2019-01-13T02:00:52.427Z,99.90
2019-01-13T02:02:57.996Z,99.90
2019-01-13T02:05:03.812Z,99.90
2019-01-13T02:07:09.807Z,99.90
2019-01-13T02:09:15.267Z,99.90
2019-01-13T02:11:20.762Z,99.90
2019-01-13T02:13:26.225Z,99.90
2019-01-13T02:15:32.029Z,99.90
2019-01-13T02:17:37.714Z,99.90
2019-01-13T02:19:43.210Z,99.90
2019-01-13T02:21:48.715Z,99.90
2019-01-13T02:23:54.381Z,99.90
2019-01-13T02:26:00.104Z,99.90
2019-01-13T02:28:05.589Z,99.90
2019-01-13T02:30:14.903Z,99.90
2019-01-13T02:32:20.399Z,99.90
2019-01-13T02:34:26.135Z,99.90
2019-01-13T02:36:34.726Z,99.90
2019-01-13T02:38:40.723Z,99.90
2019-01-13T02:40:46.923Z,99.90
2019-01-13T02:42:55.810Z,99.90
2019-01-13T02:45:01.507Z,99.90
2019-01-13T02:47:07.964Z,99.90
2019-01-13T02:49:13.485Z,99.90
2019-01-13T02:51:19.930Z,99.90
2019-01-13T02:53:26.254Z,99.90
2019-01-13T02:55:35.441Z,99.90
2019-01-13T02:57:41.122Z,99.90
2019-01-13T02:59:46.554Z,99.90
2019-01-13T03:01:52.010Z,99.90
2019-01-13T03:03:58.069Z,99.90
2019-01-13T03:06:03.661Z,99.90
2019-01-13T03:08:10.087Z,99.90
2019-01-13T03:10:17.889Z,99.90
2019-01-13T03:12:23.610Z,99.90
2019-01-13T03:14:36.629Z,99.90
2019-01-13T03:16:43.240Z,99.90
2019-01-13T03:18:49.471Z,99.90
2019-01-13T03:20:55.171Z,99.90
2019-01-13T03:23:00.747Z,99.90
2019-01-13T03:25:09.214Z,99.90
2019-01-13T03:27:16.303Z,99.90
2019-01-13T03:29:22.336Z,99.90
2019-01-13T03:31:28.200Z,99.90
2019-01-13T03:33:34.160Z,99.90
2019-01-13T03:35:39.850Z,99.90
2019-01-13T03:37:45.525Z,99.90
2019-01-13T03:39:51.478Z,99.90
2019-01-13T03:41:56.905Z,99.90
2019-01-13T03:44:02.447Z,99.90
2019-01-13T03:46:08.197Z,99.90
2019-01-13T03:48:13.645Z,99.90
2019-01-13T03:50:21.538Z,99.90
2019-01-13T03:52:27.175Z,99.90
2019-01-13T03:54:33.193Z,99.90
2019-01-13T03:56:38.800Z,99.90
2019-01-13T03:58:50.619Z,99.90
2019-01-13T04:00:56.327Z,99.90
2019-01-13T04:03:01.767Z,99.90
2019-01-13T04:05:13.323Z,99.90
2019-01-13T04:07:18.806Z,99.90
2019-01-13T04:09:24.771Z,99.90
2019-01-13T04:11:31.430Z,99.90
2019-01-13T04:13:36.990Z,99.90
2019-01-13T04:15:47.462Z,99.90
2019-01-13T04:17:53.145Z,99.90
2019-01-13T04:19:58.696Z,99.90
2019-01-13T04:22:04.260Z,99.90
2019-01-13T04:24:10.037Z,99.90
2019-01-13T04:26:15.603Z,99.90
2019-01-13T04:28:21.172Z,99.90
2019-01-13T04:30:28.818Z,99.90
2019-01-13T04:32:34.494Z,99.90
2019-01-13T04:34:39.966Z,99.90
2019-01-13T04:36:45.540Z,99.90
2019-01-13T04:38:51.374Z,99.90
2019-01-13T04:40:57.059Z,99.90
2019-01-13T04:43:06.612Z,99.90
2019-01-13T04:45:13.144Z,99.90
2019-01-13T04:47:19.594Z,99.90
2019-01-13T04:49:33.705Z,99.90
2019-01-13T04:51:40.234Z,99.90
2019-01-13T04:53:46.069Z,99.90
2019-01-13T04:55:51.573Z,99.90
2019-01-13T04:57:57.158Z,99.90
2019-01-13T05:00:02.640Z,99.90
2019-01-13T05:02:08.159Z,99.90
2019-01-13T05:04:14.223Z,99.90
2019-01-13T05:06:19.878Z,99.90
2019-01-13T05:08:28.631Z,99.90
2019-01-13T05:10:34.215Z,99.90
2019-01-13T05:12:39.757Z,99.90
2019-01-13T05:14:45.561Z,99.90
2019-01-13T05:16:51.174Z,99.90
2019-01-13T05:18:56.682Z,99.90
2019-01-13T05:21:04.586Z,99.90
2019-01-13T05:23:10.158Z,99.90
2019-01-13T05:25:16.299Z,99.90
2019-01-13T05:27:22.183Z,99.90
2019-01-13T05:29:27.697Z,99.90
2019-01-13T05:31:33.226Z,99.90
2019-01-13T05:33:42.205Z,99.90
2019-01-13T05:35:47.618Z,99.90
2019-01-13T05:37:53.387Z,99.90
2019-01-13T05:40:00.946Z,99.90
2019-01-13T05:52:32.638Z,99.90
2019-01-13T05:54:40.169Z,99.90
2019-01-13T05:56:45.805Z,99.90
2019-01-13T05:58:51.365Z,99.90
2019-01-13T06:00:57.769Z,99.90
2019-01-13T06:03:03.547Z,99.90
2019-01-13T06:05:09.298Z,99.90
2019-01-13T06:07:16.643Z,99.90
2019-01-13T06:09:22.544Z,99.90
2019-01-13T06:11:28.262Z,99.90
2019-01-13T06:13:33.685Z,99.90
2019-01-13T06:15:40.362Z,99.90
2019-01-13T06:17:45.940Z,99.90
2019-01-13T06:19:51.949Z,99.90
2019-01-13T06:21:58.503Z,99.90
2019-01-13T06:24:04.066Z,99.90
2019-01-13T06:26:12.070Z,99.90
2019-01-13T06:28:17.995Z,99.90
2019-01-13T06:30:24.594Z,99.90
2019-01-13T06:32:30.046Z,99.90
2019-01-13T06:34:35.643Z,99.90
2019-01-13T06:36:41.179Z,99.90
2019-01-13T06:38:46.733Z,99.90
2019-01-13T06:40:52.218Z,99.90
2019-01-13T06:42:59.385Z,99.90
2019-01-13T06:45:05.641Z,99.90
2019-01-13T06:47:11.782Z,99.90
2019-01-13T06:49:17.646Z,99.90
2019-01-13T06:51:29.454Z,99.90
2019-01-13T06:53:35.038Z,99.90
2019-01-13T06:55:40.909Z,99.90
2019-01-13T06:57:46.749Z,99.90
2019-01-13T06:59:52.436Z,99.90
2019-01-13T07:02:03.310Z,99.90
2019-01-13T07:04:08.480Z,99.90
2019-01-13T07:06:13.970Z,99.90
2019-01-13T07:08:19.726Z,99.90
2019-01-13T07:10:26.021Z,99.90
2019-01-13T07:12:31.469Z,99.90
2019-01-13T07:14:37.023Z,99.90
2019-01-13T07:16:43.025Z,99.90
2019-01-13T07:18:48.601Z,99.90
2019-01-13T07:20:55.492Z,99.90
2019-01-13T07:23:03.166Z,99.90
2019-01-13T07:25:09.074Z,99.90
2019-01-13T07:27:14.473Z,99.90
2019-01-13T07:29:21.170Z,99.90
2019-01-13T07:31:26.809Z,99.90
2019-01-13T07:33:32.276Z,99.90
2019-01-13T07:35:37.891Z,99.90
2019-01-13T07:37:43.362Z,99.90
2019-01-13T07:39:49.285Z,99.90
2019-01-13T07:41:54.915Z,99.90
2019-01-13T07:44:00.628Z,99.90
2019-01-13T07:46:06.633Z,99.90
2019-01-13T07:48:12.214Z,99.90
2019-01-13T07:50:18.485Z,99.90
2019-01-13T07:52:24.391Z,99.90
2019-01-13T07:54:30.586Z,99.90
2019-01-13T07:56:36.067Z,99.90
2019-01-13T07:58:41.560Z,99.90
2019-01-13T08:00:47.050Z,99.90
2019-01-13T08:02:52.925Z,99.90
2019-01-13T08:04:58.494Z,99.90
2019-01-13T08:07:09.711Z,99.90
2019-01-13T08:09:15.623Z,99.90
2019-01-13T08:11:22.042Z,99.90
2019-01-13T08:13:27.599Z,99.90
2019-01-13T08:15:35.263Z,99.90
2019-01-13T08:17:40.706Z,99.90
2019-01-13T08:19:47.252Z,99.90
2019-01-13T08:21:53.033Z,99.90
2019-01-13T08:23:58.801Z,99.90
2019-01-13T08:26:05.614Z,99.90
2019-01-13T08:28:11.036Z,99.90
2019-01-13T08:30:18.066Z,99.90
2019-01-13T08:32:29.831Z,99.90
2019-01-13T08:34:35.298Z,99.90
2019-01-13T08:36:40.922Z,99.90
2019-01-13T08:38:54.937Z,99.90
2019-01-13T08:41:00.869Z,99.90
2019-01-13T08:43:06.562Z,99.90
2019-01-13T08:45:14.642Z,99.90
2019-01-13T08:47:20.811Z,90.10
2019-01-13T08:49:28.718Z,56.50
2019-01-13T08:51:35.906Z,79.70
2019-01-13T08:53:41.356Z,55.80
2019-01-13T08:55:47.033Z,48.90
2019-01-13T08:57:52.323Z,47.40
2019-01-13T08:59:58.166Z,47.10
2019-01-13T09:02:03.831Z,43.50
2019-01-13T09:04:12.714Z,39.10
2019-01-13T09:06:18.062Z,42.40
2019-01-13T09:08:23.721Z,39.50
2019-01-13T09:10:28.972Z,39.60
2019-01-13T09:12:34.660Z,37.40
2019-01-13T09:14:42.276Z,40.60
2019-01-13T09:16:47.715Z,39.10
2019-01-13T09:18:53.012Z,38.30
2019-01-13T09:21:04.267Z,37.30
2019-01-13T09:23:11.041Z,36.50
2019-01-13T09:25:16.583Z,38.50
2019-01-13T09:27:21.798Z,37.30
2019-01-13T09:29:32.933Z,36.60
2019-01-13T09:31:38.230Z,35.10
2019-01-13T09:33:43.378Z,34.00
2019-01-13T09:35:56.670Z,34.50
2019-01-13T09:38:02.126Z,34.60
2019-01-13T09:40:09.781Z,33.10
2019-01-13T09:42:16.424Z,32.50
2019-01-13T09:44:21.798Z,31.60
2019-01-13T09:46:28.348Z,31.40
2019-01-13T09:48:34.102Z,31.20
2019-01-13T09:50:40.154Z,31.70
2019-01-13T09:52:45.821Z,31.20
2019-01-13T09:54:55.127Z,30.20
2019-01-13T09:57:00.744Z,32.60
2019-01-13T09:59:06.840Z,32.00
2019-01-13T10:01:18.424Z,32.50
2019-01-13T10:03:24.569Z,31.10
2019-01-13T10:05:29.975Z,31.20
2019-01-13T10:07:36.194Z,29.80
2019-01-13T10:09:41.510Z,31.80
2019-01-13T10:11:47.279Z,30.00
2019-01-13T10:13:54.522Z,29.40
2019-01-13T10:16:00.033Z,29.40
2019-01-13T10:18:05.671Z,28.10
2019-01-13T10:20:15.333Z,30.20
2019-01-13T10:22:20.561Z,29.40
2019-01-13T10:24:25.907Z,29.10
2019-01-13T10:26:31.314Z,29.00
2019-01-13T10:28:36.599Z,29.00
2019-01-13T10:30:41.939Z,28.90
2019-01-13T10:32:54.355Z,29.20
2019-01-13T10:34:55.466Z,27.50
2019-01-13T10:37:00.783Z,28.20
2019-01-13T10:39:13.520Z,28.30
2019-01-13T10:41:23.436Z,28.50
2019-01-13T10:43:28.881Z,28.90
2019-01-13T10:45:35.029Z,30.10
2019-01-13T10:47:51.825Z,29.60
2019-01-13T10:49:59.975Z,30.90
2019-01-13T10:52:07.058Z,33.10
2019-01-13T10:54:12.462Z,34.20
2019-01-13T10:56:18.246Z,36.50
2019-01-13T10:58:26.934Z,35.50
2019-01-13T11:00:36.907Z,36.70
2019-01-13T11:02:42.334Z,36.40
2019-01-13T11:04:47.532Z,36.00
2019-01-13T11:06:52.782Z,36.80
2019-01-13T11:08:58.363Z,35.30
2019-01-13T11:11:03.879Z,36.50
2019-01-13T11:13:09.013Z,36.70
2019-01-13T11:15:21.531Z,38.30
2019-01-13T11:17:22.015Z,37.80
2019-01-13T11:19:27.756Z,39.80
2019-01-13T11:21:32.948Z,39.80
2019-01-13T11:23:38.471Z,39.70
2019-01-13T11:25:43.839Z,40.00
2019-01-13T11:27:49.127Z,41.20
2019-01-13T11:29:57.613Z,40.80
2019-01-13T11:32:03.582Z,40.30
2019-01-13T11:34:09.589Z,42.10
2019-01-13T11:36:15.966Z,42.40
2019-01-13T11:38:21.646Z,42.00
2019-01-13T11:40:28.207Z,41.50
2019-01-13T11:42:36.331Z,42.30
2019-01-13T11:44:42.178Z,41.50
2019-01-13T11:46:48.297Z,41.50
2019-01-13T11:48:53.793Z,40.80
2019-01-13T11:50:59.285Z,41.60
2019-01-13T11:53:05.906Z,39.90
2019-01-13T11:55:13.039Z,39.80
2019-01-13T11:57:18.518Z,40.30
2019-01-13T11:59:24.229Z,40.80
2019-01-13T12:01:30.106Z,41.40
2019-01-13T12:03:35.796Z,41.90
2019-01-13T12:05:41.567Z,41.30
2019-01-13T12:07:47.297Z,41.80
2019-01-13T12:10:03.145Z,42.90
2019-01-13T12:12:09.737Z,41.80
2019-01-13T12:14:19.278Z,42.60
2019-01-13T12:16:25.247Z,42.10
2019-01-13T12:18:40.340Z,42.60
2019-01-13T12:20:42.376Z,43.10
2019-01-13T12:22:49.066Z,43.60
2019-01-13T12:24:58.365Z,43.50
2019-01-13T12:27:04.385Z,42.60
2019-01-13T12:29:10.721Z,43.00
2019-01-13T12:31:16.201Z,43.60
2019-01-13T12:33:24.712Z,43.70
2019-01-13T12:35:30.720Z,43.60
2019-01-13T12:37:36.307Z,44.00
2019-01-13T12:39:48.962Z,42.30
2019-01-13T12:41:54.746Z,41.00
2019-01-13T12:44:00.715Z,41.50
2019-01-13T12:46:06.247Z,41.80
2019-01-13T12:48:11.647Z,42.10
2019-01-13T12:50:25.212Z,41.70
2019-01-13T12:52:31.268Z,41.20
2019-01-13T12:54:36.798Z,42.70
2019-01-13T12:56:42.280Z,41.40
2019-01-13T12:58:51.190Z,41.80
2019-01-13T13:00:56.633Z,41.80
2019-01-13T13:03:02.288Z,42.80
2019-01-13T13:05:09.512Z,42.30
2019-01-13T13:07:15.700Z,42.90
2019-01-13T13:09:22.603Z,42.50
2019-01-13T13:11:28.070Z,42.00
2019-01-13T13:13:33.486Z,41.70
2019-01-13T13:15:38.919Z,42.00
2019-01-13T13:17:47.667Z,42.70
2019-01-13T13:19:53.725Z,44.90
2019-01-13T13:21:59.254Z,48.70
2019-01-13T13:24:12.573Z,47.60
2019-01-13T13:26:18.266Z,46.90
2019-01-13T13:28:23.957Z,46.00
2019-01-13T13:30:31.151Z,46.00
2019-01-13T13:32:36.698Z,47.10
2019-01-13T13:34:42.538Z,53.00
2019-01-13T13:36:48.186Z,53.40
2019-01-13T13:38:54.293Z,62.80
2019-01-13T13:41:00.332Z,68.20
2019-01-13T13:43:05.778Z,55.90
2019-01-13T13:45:11.994Z,75.00
2019-01-13T13:47:17.444Z,71.20
2019-01-13T13:49:26.618Z,66.80
2019-01-13T13:51:32.090Z,70.80
2019-01-13T13:53:38.122Z,90.90
2019-01-13T13:55:43.563Z,89.20
2019-01-13T13:57:51.344Z,91.40
2019-01-13T13:59:57.803Z,98.50
2019-01-13T14:02:03.658Z,99.90
2019-01-13T14:04:09.083Z,99.90
2019-01-13T14:06:14.590Z,99.10
2019-01-13T14:08:20.222Z,99.90
2019-01-13T14:10:31.506Z,99.90
2019-01-13T14:12:36.997Z,99.90
2019-01-13T14:14:42.680Z,99.90
2019-01-13T14:16:48.249Z,99.90
2019-01-13T14:18:53.833Z,99.90
2019-01-13T14:20:59.262Z,99.90
2019-01-13T14:23:05.044Z,99.90
2019-01-13T14:25:10.697Z,99.90
2019-01-13T14:27:17.168Z,99.90
2019-01-13T14:29:23.075Z,99.90
2019-01-13T14:31:28.510Z,99.90
2019-01-13T14:33:37.031Z,99.90
2019-01-13T14:35:42.619Z,99.90
2019-01-13T14:37:49.191Z,99.90
2019-01-13T14:40:00.935Z,99.90
2019-01-13T14:42:06.433Z,99.90
2019-01-13T14:44:12.010Z,99.90
2019-01-13T14:46:17.602Z,99.90
2019-01-13T14:48:23.543Z,99.90
2019-01-13T14:50:31.583Z,99.90
2019-01-13T14:52:40.304Z,99.90
2019-01-13T14:54:46.931Z,99.90
2019-01-13T14:56:52.800Z,99.90
2019-01-13T14:59:04.906Z,99.90
2019-01-13T15:01:10.938Z,99.90
2019-01-13T15:03:16.703Z,99.90
2019-01-13T15:05:24.418Z,99.90
2019-01-13T15:07:32.237Z,99.90
2019-01-13T15:09:38.262Z,99.90
2019-01-13T15:11:44.030Z,99.90
2019-01-13T15:13:51.537Z,99.90
2019-01-13T15:15:56.977Z,99.90
2019-01-13T15:18:08.437Z,99.90
2019-01-13T15:20:16.408Z,99.90
2019-01-13T15:22:21.974Z,99.90
2019-01-13T15:24:28.639Z,99.90
2019-01-13T15:26:34.119Z,99.90
2019-01-13T15:28:41.519Z,99.90
2019-01-13T15:30:48.430Z,99.90
2019-01-13T15:32:54.341Z,99.90
2019-01-13T15:34:59.785Z,99.90
2019-01-13T15:37:11.441Z,99.90
2019-01-13T15:39:16.898Z,99.90
2019-01-13T15:41:22.680Z,99.90
2019-01-13T15:43:28.457Z,99.90
2019-01-13T15:45:33.970Z,99.90
2019-01-13T15:47:39.414Z,99.90
2019-01-13T15:49:45.938Z,99.90
2019-01-13T15:51:51.534Z,99.90
2019-01-13T15:53:57.366Z,99.90
2019-01-13T15:56:04.518Z,99.90
2019-01-13T15:58:10.254Z,99.90
2019-01-13T16:00:18.353Z,99.90
2019-01-13T16:02:25.602Z,99.90
2019-01-13T16:04:31.290Z,99.90
2019-01-13T16:06:39.511Z,99.90
2019-01-13T16:08:51.298Z,99.90
2019-01-13T16:10:56.790Z,99.90
2019-01-13T16:13:02.417Z,99.90
2019-01-13T16:15:08.811Z,99.90
2019-01-13T16:17:14.315Z,99.90
2019-01-13T16:19:20.353Z,99.90
2019-01-13T16:21:27.471Z,99.90
2019-01-13T16:23:33.303Z,99.90
2019-01-13T16:25:38.829Z,99.90
2019-01-13T16:27:45.987Z,99.90
2019-01-13T16:29:53.871Z,99.90
2019-01-13T16:31:59.446Z,99.90
2019-01-13T16:34:10.285Z,99.90
2019-01-13T16:36:15.864Z,99.90
2019-01-13T16:38:21.663Z,99.90
2019-01-13T16:40:27.474Z,99.90
2019-01-13T16:42:33.441Z,99.90
2019-01-13T16:44:38.857Z,99.90
2019-01-13T16:46:45.730Z,99.90
2019-01-13T16:48:51.257Z,99.90
2019-01-13T16:50:56.665Z,99.90
2019-01-13T16:53:06.041Z,99.90
2019-01-13T16:55:10.662Z,99.90
2019-01-13T16:57:16.094Z,99.90
2019-01-13T16:59:22.221Z,99.90
2019-01-13T17:01:27.926Z,99.90
2019-01-13T17:03:33.478Z,99.90
2019-01-13T17:05:45.006Z,99.90
2019-01-13T17:07:50.623Z,99.90
2019-01-13T17:09:56.514Z,99.90
2019-01-13T17:12:05.845Z,99.90
2019-01-13T17:14:11.281Z,99.90
2019-01-13T17:16:17.535Z,99.90
2019-01-13T17:18:24.054Z,99.90
2019-01-13T17:20:29.727Z,99.90
2019-01-13T17:22:35.354Z,99.90
2019-01-13T17:24:41.330Z,99.90
2019-01-13T17:26:47.207Z,99.90
2019-01-13T17:28:52.870Z,99.90
2019-01-13T17:30:58.618Z,99.90
2019-01-13T17:33:05.183Z,99.90
2019-01-13T17:35:11.758Z,99.90
2019-01-13T17:37:17.374Z,99.90
2019-01-13T17:39:25.091Z,99.90
2019-01-13T17:41:30.825Z,99.90
2019-01-13T17:43:36.487Z,99.90
2019-01-13T17:45:42.677Z,99.90
2019-01-13T17:47:48.633Z,99.90
2019-01-13T17:49:56.833Z,99.90
2019-01-13T17:52:04.670Z,99.90
2019-01-13T17:54:10.902Z,99.90
2019-01-13T17:56:22.652Z,99.90
2019-01-13T17:58:28.932Z,99.90
2019-01-13T18:01:18.921Z,99.90
2019-01-13T18:03:53.168Z,99.90
2019-01-13T18:05:59.346Z,99.90
2019-01-13T18:08:05.447Z,99.90
2019-01-13T18:10:11.287Z,99.90
2019-01-13T18:12:17.109Z,99.90
2019-01-13T18:14:29.094Z,99.90
2019-01-13T18:16:34.614Z,99.90
2019-01-13T18:18:40.213Z,99.90
2019-01-13T18:20:45.803Z,99.90
2019-01-13T18:22:51.958Z,99.90
2019-01-13T18:25:00.296Z,99.90
2019-01-13T18:27:05.942Z,99.90
2019-01-13T18:29:11.449Z,99.90
2019-01-13T18:31:17.728Z,99.90
2019-01-13T18:33:26.378Z,99.90
2019-01-13T18:35:31.863Z,99.90
2019-01-13T18:37:37.298Z,99.90
2019-01-13T18:39:43.343Z,99.90
2019-01-13T18:41:49.302Z,99.90
2019-01-13T18:43:56.864Z,99.90
2019-01-13T18:46:02.671Z,99.90
2019-01-13T18:48:12.704Z,99.90
2019-01-13T18:50:20.163Z,99.90
2019-01-13T18:52:28.016Z,99.90
2019-01-13T18:54:36.486Z,99.90
2019-01-13T18:56:42.098Z,99.90
2019-01-13T18:58:47.914Z,99.90
2019-01-13T19:00:53.749Z,99.90
2019-01-13T19:03:00.053Z,99.90
2019-01-13T19:05:09.410Z,99.90
2019-01-13T19:07:15.280Z,99.90
2019-01-13T19:09:21.029Z,99.90
2019-01-13T19:11:36.330Z,99.90
2019-01-13T19:14:18.661Z,99.90
2019-01-13T19:16:24.646Z,99.90
2019-01-13T19:18:36.869Z,99.90
2019-01-13T19:20:42.934Z,99.90
2019-01-13T19:22:51.655Z,99.90
2019-01-13T19:25:02.705Z,99.90
2019-01-13T19:27:11.177Z,99.90
2019-01-13T19:29:17.078Z,99.90
2019-01-13T19:31:25.318Z,99.90
2019-01-13T19:33:34.986Z,99.90
2019-01-13T19:35:40.783Z,99.90
2019-01-13T19:37:49.610Z,99.90
2019-01-13T19:39:58.004Z,99.90
2019-01-13T19:42:04.132Z,99.90
2019-01-13T19:44:09.954Z,99.90
2019-01-13T19:46:17.154Z,99.90
2019-01-13T19:51:49.384Z,99.90
2019-01-13T19:53:55.139Z,99.90
2019-01-13T19:56:00.902Z,99.90
2019-01-13T19:58:06.479Z,99.90
2019-01-13T20:00:43.433Z,99.90
2019-01-13T20:02:49.983Z,99.90
2019-01-13T20:04:59.662Z,99.90
2019-01-13T20:07:06.492Z,99.90
2019-01-13T20:09:12.172Z,99.90
2019-01-13T20:11:17.874Z,99.90
2019-01-13T20:13:23.624Z,99.90
2019-01-13T20:15:29.642Z,99.90
2019-01-13T20:17:38.565Z,99.90
2019-01-13T20:19:48.145Z,99.90
2019-01-13T20:21:53.818Z,99.90
2019-01-13T20:24:02.479Z,99.90
2019-01-13T20:26:13.110Z,99.90
2019-01-13T20:28:18.792Z,99.90
2019-01-13T20:30:27.548Z,99.90
2019-01-13T20:32:33.683Z,99.90
2019-01-13T20:34:39.983Z,99.90
2019-01-13T20:36:47.723Z,99.90
2019-01-13T20:38:59.594Z,99.90
2019-01-13T20:41:08.900Z,99.90
2019-01-13T20:43:21.320Z,99.90
2019-01-13T20:45:35.984Z,99.90
2019-01-13T20:47:42.110Z,99.90
2019-01-13T20:49:50.637Z,99.90
2019-01-13T20:51:56.282Z,99.90
2019-01-13T20:54:07.866Z,99.90
2019-01-13T20:56:10.555Z,99.90
2019-01-13T20:58:16.471Z,99.90
2019-01-13T21:00:24.704Z,99.90
2019-01-13T21:02:33.425Z,99.90
2019-01-13T21:04:40.535Z,99.90
2019-01-13T21:06:46.164Z,99.90
2019-01-13T21:08:55.176Z,99.90
2019-01-13T21:11:01.765Z,99.90
2019-01-13T21:13:08.081Z,99.90
2019-01-13T21:15:17.108Z,99.90
2019-01-13T21:17:22.800Z,99.90
2019-01-13T21:19:29.416Z,99.90
2019-01-13T21:21:35.671Z,99.90
2019-01-13T21:23:41.418Z,99.90
2019-01-13T21:25:47.303Z,99.90
2019-01-13T21:27:58.833Z,99.90
2019-01-13T21:30:06.352Z,99.90
2019-01-13T21:32:12.218Z,99.90
2019-01-13T21:34:17.898Z,99.90
2019-01-13T21:36:25.942Z,99.90
2019-01-13T21:38:31.585Z,99.90
2019-01-13T21:40:44.482Z,99.90
2019-01-13T21:42:50.872Z,99.90
2019-01-13T21:44:56.431Z,99.90
2019-01-13T21:47:04.131Z,99.90
2019-01-13T21:49:10.570Z,99.90
2019-01-13T21:51:16.473Z,99.90
2019-01-13T21:53:22.348Z,99.90
2019-01-13T21:55:28.873Z,99.90
2019-01-13T21:57:34.600Z,99.90
2019-01-13T21:59:40.868Z,99.90
2019-01-13T22:01:48.006Z,99.90
2019-01-13T22:03:54.352Z,99.90
2019-01-13T22:05:59.993Z,99.90
2019-01-13T22:10:28.101Z,99.90
2019-01-13T22:12:34.053Z,99.90
2019-01-13T22:14:40.242Z,99.90
2019-01-13T22:16:46.542Z,99.90
2019-01-13T22:18:59.999Z,99.90
2019-01-13T22:21:06.856Z,99.90
2019-01-13T22:23:12.505Z,99.90
2019-01-13T22:25:18.743Z,99.90
2019-01-13T22:27:25.170Z,99.90
2019-01-13T22:31:52.510Z,99.90
2019-01-13T22:33:59.120Z,99.90
2019-01-13T22:36:05.343Z,99.90
2019-01-13T22:38:11.758Z,99.90
2019-01-13T22:40:20.474Z,99.90
2019-01-13T22:42:31.958Z,99.90
2019-01-13T22:46:59.191Z,99.90
2019-01-13T22:49:11.987Z,99.90
2019-01-13T22:51:18.137Z,99.90
2019-01-13T22:53:24.403Z,99.90
2019-01-13T22:55:30.268Z,99.90
2019-01-13T22:59:48.236Z,99.90
2019-01-13T23:01:54.209Z,99.90
2019-01-13T23:04:08.551Z,99.90
2019-01-13T23:06:14.733Z,99.90
2019-01-13T23:08:21.073Z,99.90
2019-01-13T23:10:27.026Z,99.90
2019-01-13T23:14:44.215Z,99.90
2019-01-13T23:16:55.868Z,99.90
2019-01-13T23:19:01.839Z,99.90
2019-01-13T23:21:10.678Z,99.90
2019-01-13T23:23:16.689Z,99.90
2019-01-13T23:25:22.324Z,99.90
2019-01-13T23:27:34.136Z,99.90
2019-01-13T23:29:42.740Z,99.90
2019-01-13T23:31:48.372Z,99.90
2019-01-13T23:33:57.858Z,99.90
2019-01-13T23:36:48.710Z,99.90
2019-01-13T23:38:54.403Z,99.90
2019-01-13T23:41:00.279Z,99.90
2019-01-13T23:43:08.521Z,99.90
2019-01-13T23:45:20.983Z,99.90
2019-01-13T23:47:26.791Z,99.90
2019-01-13T23:49:32.626Z,99.90
2019-01-13T23:51:41.393Z,99.90
2019-01-13T23:53:47.065Z,99.90
2019-01-13T23:55:52.731Z,99.90
2019-01-13T23:58:01.249Z,99.90
